| time (UTC) | temp F | wind direction | speed MPH | gust MPH | rain 1hr in | rain 24hr in | rain mn in | humidity % | barometer mb |
| 20260509053015 | 70 | 229 | 0.0 | 0.0 | 0.00 | 0.46 | 0.00 | 83 | 1011.2 |
| 20260509051522 | 70 | 229 | 0.0 | 3.0 | 0.00 | 0.46 | 0.00 | 83 | 1011.7 |
| 20260509050026 | 71 | 308 | 0.0 | 8.0 | 0.00 | 0.46 | 0.00 | 82 | 1012.0 |
| 20260509044506 | 71 | 15 | 0.0 | 3.0 | 0.00 | 0.46 | 0.46 | 81 | 1011.3 |
| 20260509043013 | 71 | 171 | 2.0 | 6.0 | 0.00 | 0.46 | 0.46 | 80 | 1010.6 |
| 20260509041519 | 71 | 137 | 1.0 | 5.0 | 0.00 | 0.46 | 0.46 | 80 | 1010.7 |
| 20260509040033 | 72 | 192 | 3.0 | 10.0 | 0.00 | 0.46 | 0.46 | 79 | 1010.0 |
| 20260509034527 | 72 | 183 | 4.0 | 9.0 | 0.00 | 0.46 | 0.46 | 78 | 1009.9 |
| 20260509033007 | 72 | 84 | 1.0 | 3.0 | 0.00 | 0.46 | 0.46 | 78 | 1011.1 |
| 20260509031524 | 72 | 119 | 0.0 | 0.0 | 0.00 | 0.46 | 0.46 | 77 | 1011.3 |
| 20260509030018 | 72 | 121 | 0.0 | 0.0 | 0.00 | 0.46 | 0.46 | 77 | 1011.1 |
| 20260509024524 | 72 | 121 | 0.0 | 0.0 | 0.00 | 0.46 | 0.46 | 77 | 1010.8 |
| 20260509023026 | 72 | 121 | 0.0 | 2.0 | 0.00 | 0.46 | 0.46 | 76 | 1010.5 |
| 20260509021513 | 73 | 140 | 0.0 | 6.0 | 0.00 | 0.46 | 0.46 | 76 | 1009.7 |
| 20260509020018 | 73 | 140 | 3.0 | 7.0 | 0.00 | 0.46 | 0.46 | 75 | 1009.3 |
| 20260509014535 | 73 | 142 | 1.0 | 6.0 | 0.00 | 0.46 | 0.46 | 74 | 1009.3 |
| 20260509013024 | 74 | 200 | 3.0 | 10.0 | 0.00 | 0.46 | 0.46 | 73 | 1009.1 |
| 20260509011509 | 74 | 145 | 0.0 | 5.0 | 0.00 | 0.46 | 0.46 | 72 | 1009.2 |
| 20260509010012 | 75 | 181 | 1.0 | 6.0 | 0.00 | 0.46 | 0.46 | 71 | 1009.3 |
| 20260509004520 | 75 | 207 | 0.0 | 4.0 | 0.00 | 0.46 | 0.46 | 70 | 1009.1 |
| 20260509003024 | 76 | 202 | 2.0 | 7.0 | 0.00 | 0.46 | 0.46 | 69 | 1008.8 |
| 20260509001530 | 76 | 186 | 1.0 | 8.0 | 0.00 | 0.46 | 0.46 | 68 | 1008.8 |
| 20260509000013 | 77 | 190 | 2.0 | 8.0 | 0.00 | 0.46 | 0.46 | 67 | 1008.8 |
| 20260508234517 | 78 | 182 | 2.0 | 11.0 | 0.00 | 0.46 | 0.46 | 66 | 1008.9 |
| 20260508233022 | 79 | 150 | 3.0 | 10.0 | 0.00 | 0.46 | 0.46 | 63 | 1009.0 |
| 20260508231526 | 81 | 158 | 3.0 | 10.0 | 0.00 | 0.46 | 0.46 | 62 | 1009.1 |
| 20260508230028 | 81 | 148 | 2.0 | 10.0 | 0.00 | 0.46 | 0.46 | 62 | 1009.1 |
| 20260508224516 | 82 | 126 | 2.0 | 7.0 | 0.00 | 0.46 | 0.46 | 61 | 1009.1 |
| 20260508223018 | 82 | 109 | 2.0 | 8.0 | 0.00 | 0.46 | 0.46 | 60 | 1009.2 |
| 20260508221524 | 82 | 102 | 1.0 | 7.0 | 0.00 | 0.46 | 0.46 | 60 | 1009.2 |
| 20260508214528 | 82 | 186 | 2.0 | 10.0 | 0.00 | 0.46 | 0.46 | 59 | 1009.1 |
| 20260508213017 | 82 | 111 | 3.0 | 10.0 | 0.00 | 0.46 | 0.46 | 59 | 1009.1 |
| 20260508211524 | 81 | 126 | 2.0 | 11.0 | 0.00 | 0.46 | 0.46 | 60 | 1009.3 |
| 20260508210028 | 81 | 196 | 2.0 | 10.0 | 0.00 | 0.46 | 0.46 | 60 | 1009.9 |
| 20260508204531 | 80 | 202 | 4.0 | 13.0 | 0.00 | 0.46 | 0.46 | 60 | 1010.7 |
| 20260508203028 | 81 | 217 | 3.0 | 9.0 | 0.00 | 0.46 | 0.46 | 59 | 1010.7 |
| 20260508201525 | 81 | 190 | 2.0 | 9.0 | 0.00 | 0.46 | 0.46 | 57 | 1010.8 |
| 20260508200026 | 82 | 199 | 3.0 | 12.0 | 0.00 | 0.46 | 0.46 | 55 | 1011.0 |
| 20260508194526 | 83 | 211 | 3.0 | 10.0 | 0.00 | 0.46 | 0.46 | 53 | 1011.2 |
| 20260508193028 | 83 | 208 | 3.0 | 8.0 | 0.00 | 0.46 | 0.46 | 53 | 1011.2 |
| 20260508191526 | 82 | 148 | 3.0 | 10.0 | 0.00 | 0.46 | 0.46 | 54 | 1011.3 |
| 20260508190024 | 82 | 171 | 3.0 | 9.0 | 0.00 | 0.46 | 0.46 | 54 | 1011.6 |
| 20260508184506 | 82 | 200 | 1.0 | 10.0 | 0.00 | 0.46 | 0.46 | 56 | 1011.7 |
| 20260508183010 | 81 | 292 | 1.0 | 7.0 | 0.00 | 0.46 | 0.46 | 56 | 1011.8 |
| 20260508181517 | 79 | 211 | 2.0 | 7.0 | 0.00 | 0.46 | 0.46 | 56 | 1012.2 |
| 20260508180021 | 79 | 186 | 2.0 | 8.0 | 0.00 | 0.46 | 0.46 | 58 | 1012.6 |
| 20260508174533 | 77 | 215 | 2.0 | 7.0 | 0.00 | 0.46 | 0.46 | 59 | 1012.5 |
| 20260508173009 | 76 | 199 | 1.0 | 10.0 | 0.00 | 0.46 | 0.46 | 61 | 1012.9 |
| 20260508171509 | 75 | 161 | 1.0 | 8.0 | 0.00 | 0.46 | 0.46 | 61 | 1013.2 |
| 20260508170018 | 74 | 186 | 3.0 | 10.0 | 0.00 | 0.46 | 0.46 | 63 | 1013.5 |
| 20260508164520 | 72 | 124 | 1.0 | 12.0 | 0.00 | 0.46 | 0.46 | 66 | 1013.8 |
| 20260508163035 | 70 | 161 | 1.0 | 8.0 | 0.00 | 0.46 | 0.46 | 70 | 1014.2 |
| 20260508160017 | 68 | 184 | 0.0 | 7.0 | 0.00 | 0.46 | 0.46 | 73 | 1014.6 |
| 20260508154518 | 68 | 150 | 1.0 | 5.0 | 0.00 | 0.46 | 0.46 | 76 | 1014.6 |
| 20260508153024 | 67 | 215 | 3.0 | 6.0 | 0.00 | 0.46 | 0.46 | 77 | 1014.9 |
| 20260508151525 | 66 | 201 | 2.0 | 7.0 | 0.00 | 0.46 | 0.46 | 79 | 1014.6 |
| 20260508150011 | 65 | 143 | 1.0 | 7.0 | 0.00 | 0.46 | 0.46 | 84 | 1014.9 |
| 20260508144519 | 64 | 192 | 1.0 | 5.0 | 0.00 | 0.46 | 0.46 | 86 | 1015.0 |
| 20260508143026 | 63 | 161 | 1.0 | 6.0 | 0.00 | 0.46 | 0.46 | 88 | 1015.1 |
| 20260508141524 | 62 | 199 | 0.0 | 4.0 | 0.00 | 0.46 | 0.46 | 91 | 1015.0 |
| 20260508133021 | 61 | 216 | 1.0 | 5.0 | 0.00 | 0.46 | 0.46 | 92 | 1015.3 |
| 20260508131522 | 61 | 117 | 0.0 | 8.0 | 0.00 | 0.46 | 0.46 | 92 | 1015.1 |
| 20260508130026 | 60 | 171 | 1.0 | 5.0 | 0.00 | 0.46 | 0.46 | 92 | 1014.8 |
| 20260508121531 | 60 | 158 | 0.0 | 0.0 | 0.19 | 0.46 | 0.46 | 90 | 1015.4 |
| 20260508120024 | 60 | 158 | 0.0 | 0.0 | 0.25 | 0.46 | 0.46 | 90 | 1015.3 |
| 20260508114523 | 60 | 158 | 0.0 | 3.0 | 0.26 | 0.46 | 0.46 | 89 | 1015.4 |
| 20260508110022 | 60 | 165 | 1.0 | 6.0 | 0.21 | 0.21 | 0.21 | 87 | 1015.0 |
| 20260508104526 | 61 | 178 | 0.0 | 4.0 | 0.20 | 0.20 | 0.20 | 87 | 1015.6 |
| 20260508103034 | 61 | 152 | 1.0 | 6.0 | 0.11 | 0.11 | 0.11 | 86 | 1015.2 |
| 20260508094524 | 61 | 156 | 0.0 | 3.0 | 0.00 | 0.00 | 0.00 | 84 | 1014.3 |
| 20260508093024 | 61 | 194 | 1.0 | 5.0 | 0.00 | 0.00 | 0.00 | 83 | 1014.3 |
| 20260508091532 | 61 | 155 | 0.0 | 2.0 | 0.00 | 0.00 | 0.00 | 81 | 1014.4 |
| 20260508090025 | 61 | 157 | 0.0 | 2.0 | 0.00 | 0.00 | 0.00 | 81 | 1014.6 |
| 20260508084522 | 62 | 184 | 0.0 | 1.0 | 0.00 | 0.00 | 0.00 | 81 | 1014.8 |
| 20260508083024 | 62 | 176 | 0.0 | 5.0 | 0.00 | 0.00 | 0.00 | 80 | 1015.2 |
| 20260508081554 | 62 | 183 | 3.0 | 7.0 | 0.00 | 0.00 | 0.00 | 80 | 1015.1 |
| 20260508080028 | 61 | 144 | 0.0 | 3.0 | 0.00 | 0.00 | 0.00 | 79 | 1015.4 |
| 20260508074522 | 61 | 179 | 0.0 | 3.0 | 0.00 | 0.00 | 0.00 | 80 | 1016.4 |
| 20260508073023 | 61 | 146 | 0.0 | 0.0 | 0.00 | 0.00 | 0.00 | 79 | 1016.0 |
| 20260508071537 | 61 | 151 | 0.0 | 0.0 | 0.00 | 0.00 | 0.00 | 79 | 1015.5 |
| 20260508063032 | 61 | 150 | 0.0 | 0.0 | 0.00 | 0.00 | 0.00 | 76 | 1016.6 |